KMOB

Mobile Regional Airport

Mobile, Alabama, USA
METAR KMOB 140156Z 11011KT 9SM -RA OVC005 17/17 A2988 RMK AO2 SLP117 P0008 T01670167 $
Observed Flight Rules
Dec-14 @ 01:56 UTC (an hour ago) Instrument Flight Rules
Wind Visibility Clouds Conditions
110° at 11 knots 9 miles
  • Overcast at 500' AGL
  • Light Rain
Temperatures Readings Precipitation
Current 17°C / 63°F
Dewpoint 17°C / 63°F
Humidity 100%
Altimeter 29.88" Hg
Pressure 1011.7 hPa
Elevation 63
Current Rain 0.08
METAR KMOB 140156Z 11011KT 9SM -RA OVC005 17/17 A2988 RMK AO2 SLP117 P0008 T01670167 $
Observed Flight Rules
Dec-14 @ 01:56 UTC
(an hour ago)
IFR
Wind Visibility
110° at 11 knots 9 miles
Clouds
  • Overcast at 500' AGL
Conditions
  • Light Rain
Temperature Dewpoint
17°C / 63°F 17°C / 63°F
Humidity Altimeter Pressure
100% 29.88" Hg 1011.7 hPa
Current Rain
0.08